Uralsk, Kazakhstan
Current Conditions -  °F | °C
As of 9:00 PM on Sunday 23 Nov 2014 (Local Time) from UARR Reporting Station
Light Snow Light Snow  
Wind Chill: 12°   Ceiling: 2200
Heat Index: 25°   Visibility: 6mi
Dew Point: 21°   Wind: 16mph
Humidity: 86%   Direction: 20°NNE
Pressure: 30.3"   Gusts: NA
Location:  51.22°N, 51.36°E
Report Text: UARR 231700Z 02007MPS 9999 -SN OVC022 M04/M06 Q1026 R22/CLRD70NOSIG RMK QFE766/1021
Loading
Personal Weather Stations






























Interactive Weather Map New forecast layout! Learn more

10-Day Weather Forecast

Advertisements
Track Severe Weather on mobile